sensor_id;sensor_type;location;lat;lon;timestamp;P1;durP1;ratioP1;P2;durP2;ratioP2
51618;SDS011;38518;53.164;5.430;2023-11-21T00:02:13;6.68;;;2.75;;
51618;SDS011;38518;53.164;5.430;2023-11-21T00:04:39;8.98;;;3.05;;
51618;SDS011;38518;53.164;5.430;2023-11-21T00:07:05;7.50;;;2.72;;
51618;SDS011;38518;53.164;5.430;2023-11-21T00:09:31;10.23;;;3.17;;
51618;SDS011;38518;53.164;5.430;2023-11-21T00:11:57;5.55;;;2.83;;
51618;SDS011;38518;53.164;5.430;2023-11-21T00:14:24;7.95;;;2.42;;
51618;SDS011;38518;53.164;5.430;2023-11-21T00:16:50;5.20;;;2.03;;
51618;SDS011;38518;53.164;5.430;2023-11-21T00:19:16;5.70;;;2.65;;
51618;SDS011;38518;53.164;5.430;2023-11-21T00:21:42;6.22;;;2.47;;
51618;SDS011;38518;53.164;5.430;2023-11-21T00:24:10;7.75;;;2.78;;
51618;SDS011;38518;53.164;5.430;2023-11-21T00:26:39;5.47;;;2.33;;
51618;SDS011;38518;53.164;5.430;2023-11-21T00:29:07;5.97;;;2.13;;
51618;SDS011;38518;53.164;5.430;2023-11-21T00:31:33;5.88;;;2.35;;
51618;SDS011;38518;53.164;5.430;2023-11-21T00:34:02;7.80;;;2.78;;
51618;SDS011;38518;53.164;5.430;2023-11-21T00:36:28;7.25;;;2.33;;
51618;SDS011;38518;53.164;5.430;2023-11-21T00:38:54;3.28;;;1.90;;
51618;SDS011;38518;53.164;5.430;2023-11-21T00:41:20;5.15;;;1.75;;
51618;SDS011;38518;53.164;5.430;2023-11-21T00:43:46;7.88;;;2.53;;
51618;SDS011;38518;53.164;5.430;2023-11-21T00:46:12;3.85;;;2.30;;
51618;SDS011;38518;53.164;5.430;2023-11-21T00:48:38;5.60;;;1.55;;
51618;SDS011;38518;53.164;5.430;2023-11-21T00:51:04;4.97;;;2.30;;
51618;SDS011;38518;53.164;5.430;2023-11-21T00:53:31;4.13;;;1.83;;
51618;SDS011;38518;53.164;5.430;2023-11-21T00:55:57;5.88;;;1.55;;
51618;SDS011;38518;53.164;5.430;2023-11-21T00:58:26;13.00;;;2.47;;
51618;SDS011;38518;53.164;5.430;2023-11-21T01:00:52;9.48;;;2.70;;
51618;SDS011;38518;53.164;5.430;2023-11-21T01:03:18;5.13;;;2.40;;
51618;SDS011;38518;53.164;5.430;2023-11-21T01:05:44;7.35;;;2.60;;
51618;SDS011;38518;53.164;5.430;2023-11-21T01:08:10;9.20;;;3.08;;
51618;SDS011;38518;53.164;5.430;2023-11-21T01:10:36;10.85;;;3.70;;
51618;SDS011;38518;53.164;5.430;2023-11-21T01:13:02;11.35;;;4.57;;
51618;SDS011;38518;53.164;5.430;2023-11-21T01:15:30;14.77;;;4.90;;
51618;SDS011;38518;53.164;5.430;2023-11-21T01:17:56;13.52;;;5.82;;
51618;SDS011;38518;53.164;5.430;2023-11-21T01:20:21;14.38;;;6.13;;
51618;SDS011;38518;53.164;5.430;2023-11-21T01:22:47;19.02;;;6.90;;
51618;SDS011;38518;53.164;5.430;2023-11-21T01:25:14;16.27;;;6.60;;
51618;SDS011;38518;53.164;5.430;2023-11-21T01:27:41;18.75;;;7.50;;
51618;SDS011;38518;53.164;5.430;2023-11-21T01:30:08;17.27;;;6.80;;
51618;SDS011;38518;53.164;5.430;2023-11-21T01:32:35;14.95;;;6.45;;
51618;SDS011;38518;53.164;5.430;2023-11-21T01:35:02;22.23;;;7.55;;
51618;SDS011;38518;53.164;5.430;2023-11-21T01:37:30;22.42;;;8.40;;
51618;SDS011;38518;53.164;5.430;2023-11-21T01:39:56;19.17;;;7.28;;
51618;SDS011;38518;53.164;5.430;2023-11-21T01:42:22;18.98;;;7.10;;
51618;SDS011;38518;53.164;5.430;2023-11-21T01:44:48;18.00;;;5.72;;
51618;SDS011;38518;53.164;5.430;2023-11-21T01:47:14;20.05;;;6.90;;
51618;SDS011;38518;53.164;5.430;2023-11-21T01:49:42;15.68;;;5.88;;
51618;SDS011;38518;53.164;5.430;2023-11-21T01:52:10;13.82;;;4.50;;
51618;SDS011;38518;53.164;5.430;2023-11-21T01:54:37;16.08;;;5.18;;
51618;SDS011;38518;53.164;5.430;2023-11-21T01:57:03;12.23;;;4.15;;
51618;SDS011;38518;53.164;5.430;2023-11-21T01:59:35;12.50;;;3.90;;
51618;SDS011;38518;53.164;5.430;2023-11-21T02:02:03;16.30;;;4.10;;
51618;SDS011;38518;53.164;5.430;2023-11-21T02:04:35;11.05;;;3.92;;
51618;SDS011;38518;53.164;5.430;2023-11-21T02:07:01;9.88;;;3.78;;
51618;SDS011;38518;53.164;5.430;2023-11-21T02:09:30;13.57;;;3.80;;
51618;SDS011;38518;53.164;5.430;2023-11-21T02:12:00;9.80;;;3.28;;
51618;SDS011;38518;53.164;5.430;2023-11-21T02:14:26;8.63;;;2.90;;
51618;SDS011;38518;53.164;5.430;2023-11-21T02:16:53;8.00;;;2.78;;
51618;SDS011;38518;53.164;5.430;2023-11-21T02:19:21;8.98;;;2.63;;
51618;SDS011;38518;53.164;5.430;2023-11-21T02:21:54;10.00;;;3.25;;
51618;SDS011;38518;53.164;5.430;2023-11-21T02:24:24;11.65;;;3.75;;
51618;SDS011;38518;53.164;5.430;2023-11-21T02:26:50;11.15;;;4.03;;
51618;SDS011;38518;53.164;5.430;2023-11-21T02:29:19;12.65;;;4.82;;
51618;SDS011;38518;53.164;5.430;2023-11-21T02:31:52;12.05;;;4.68;;
51618;SDS011;38518;53.164;5.430;2023-11-21T02:34:19;14.38;;;4.63;;
51618;SDS011;38518;53.164;5.430;2023-11-21T02:36:46;12.85;;;4.70;;
51618;SDS011;38518;53.164;5.430;2023-11-21T02:39:14;9.93;;;4.00;;
51618;SDS011;38518;53.164;5.430;2023-11-21T02:41:42;10.13;;;4.90;;
51618;SDS011;38518;53.164;5.430;2023-11-21T02:44:09;14.38;;;3.60;;
51618;SDS011;38518;53.164;5.430;2023-11-21T02:46:35;11.48;;;4.03;;
51618;SDS011;38518;53.164;5.430;2023-11-21T02:49:02;14.35;;;4.47;;
51618;SDS011;38518;53.164;5.430;2023-11-21T02:51:29;12.13;;;4.50;;
51618;SDS011;38518;53.164;5.430;2023-11-21T02:53:56;12.45;;;4.45;;
51618;SDS011;38518;53.164;5.430;2023-11-21T02:56:26;13.60;;;4.22;;
51618;SDS011;38518;53.164;5.430;2023-11-21T02:58:52;16.88;;;5.22;;
51618;SDS011;38518;53.164;5.430;2023-11-21T03:01:20;12.10;;;4.60;;
51618;SDS011;38518;53.164;5.430;2023-11-21T03:03:46;17.27;;;4.55;;
51618;SDS011;38518;53.164;5.430;2023-11-21T03:06:16;16.15;;;5.47;;
51618;SDS011;38518;53.164;5.430;2023-11-21T03:08:42;16.38;;;5.03;;
51618;SDS011;38518;53.164;5.430;2023-11-21T03:11:08;17.77;;;7.30;;
51618;SDS011;38518;53.164;5.430;2023-11-21T03:13:34;26.83;;;7.53;;
51618;SDS011;38518;53.164;5.430;2023-11-21T03:15:59;17.83;;;6.10;;
51618;SDS011;38518;53.164;5.430;2023-11-21T03:18:25;15.57;;;6.10;;
51618;SDS011;38518;53.164;5.430;2023-11-21T03:20:52;17.30;;;5.70;;
51618;SDS011;38518;53.164;5.430;2023-11-21T03:23:18;23.27;;;6.60;;
51618;SDS011;38518;53.164;5.430;2023-11-21T03:25:44;15.50;;;4.50;;
51618;SDS011;38518;53.164;5.430;2023-11-21T03:28:10;16.40;;;4.68;;
51618;SDS011;38518;53.164;5.430;2023-11-21T03:30:36;21.30;;;6.40;;
51618;SDS011;38518;53.164;5.430;2023-11-21T03:33:01;19.42;;;5.80;;
51618;SDS011;38518;53.164;5.430;2023-11-21T03:35:27;18.00;;;6.88;;
51618;SDS011;38518;53.164;5.430;2023-11-21T03:37:53;21.80;;;6.70;;
51618;SDS011;38518;53.164;5.430;2023-11-21T03:40:19;23.58;;;7.53;;
51618;SDS011;38518;53.164;5.430;2023-11-21T03:42:46;24.08;;;8.02;;
51618;SDS011;38518;53.164;5.430;2023-11-21T03:45:12;21.55;;;7.18;;
51618;SDS011;38518;53.164;5.430;2023-11-21T03:47:40;26.85;;;7.25;;
51618;SDS011;38518;53.164;5.430;2023-11-21T03:50:07;19.80;;;7.30;;
51618;SDS011;38518;53.164;5.430;2023-11-21T03:52:34;16.05;;;6.45;;
51618;SDS011;38518;53.164;5.430;2023-11-21T03:55:01;17.35;;;6.63;;
51618;SDS011;38518;53.164;5.430;2023-11-21T03:57:27;22.98;;;7.53;;
51618;SDS011;38518;53.164;5.430;2023-11-21T03:59:53;16.05;;;5.70;;
51618;SDS011;38518;53.164;5.430;2023-11-21T04:02:19;19.20;;;7.72;;
51618;SDS011;38518;53.164;5.430;2023-11-21T04:04:45;23.08;;;6.65;;
51618;SDS011;38518;53.164;5.430;2023-11-21T04:07:11;22.25;;;9.07;;
51618;SDS011;38518;53.164;5.430;2023-11-21T04:09:38;28.42;;;9.85;;
51618;SDS011;38518;53.164;5.430;2023-11-21T04:12:06;23.67;;;9.50;;
51618;SDS011;38518;53.164;5.430;2023-11-21T04:14:34;21.55;;;9.52;;
51618;SDS011;38518;53.164;5.430;2023-11-21T04:16:59;23.73;;;9.77;;
51618;SDS011;38518;53.164;5.430;2023-11-21T04:19:25;19.13;;;8.80;;
51618;SDS011;38518;53.164;5.430;2023-11-21T04:21:51;20.52;;;8.65;;
51618;SDS011;38518;53.164;5.430;2023-11-21T04:24:16;18.15;;;7.22;;
51618;SDS011;38518;53.164;5.430;2023-11-21T04:26:43;17.27;;;10.02;;
51618;SDS011;38518;53.164;5.430;2023-11-21T04:29:09;21.00;;;9.98;;
51618;SDS011;38518;53.164;5.430;2023-11-21T04:31:35;21.15;;;9.20;;
51618;SDS011;38518;53.164;5.430;2023-11-21T04:34:00;19.58;;;9.20;;
51618;SDS011;38518;53.164;5.430;2023-11-21T04:36:26;20.90;;;8.52;;
51618;SDS011;38518;53.164;5.430;2023-11-21T04:38:52;20.48;;;8.63;;
51618;SDS011;38518;53.164;5.430;2023-11-21T04:41:17;19.38;;;8.68;;
51618;SDS011;38518;53.164;5.430;2023-11-21T04:43:43;19.52;;;8.63;;
51618;SDS011;38518;53.164;5.430;2023-11-21T04:46:09;17.55;;;8.02;;
51618;SDS011;38518;53.164;5.430;2023-11-21T04:48:34;22.33;;;8.95;;
51618;SDS011;38518;53.164;5.430;2023-11-21T04:51:00;16.48;;;8.75;;
51618;SDS011;38518;53.164;5.430;2023-11-21T04:53:26;25.15;;;10.05;;
51618;SDS011;38518;53.164;5.430;2023-11-21T04:55:51;30.60;;;13.88;;
51618;SDS011;38518;53.164;5.430;2023-11-21T04:58:17;29.33;;;11.50;;
51618;SDS011;38518;53.164;5.430;2023-11-21T05:00:44;28.55;;;13.60;;
51618;SDS011;38518;53.164;5.430;2023-11-21T05:03:10;27.45;;;14.88;;
51618;SDS011;38518;53.164;5.430;2023-11-21T05:05:35;28.63;;;13.80;;
51618;SDS011;38518;53.164;5.430;2023-11-21T05:08:01;27.55;;;13.45;;
51618;SDS011;38518;53.164;5.430;2023-11-21T05:10:27;24.20;;;12.10;;
51618;SDS011;38518;53.164;5.430;2023-11-21T05:12:54;26.75;;;12.65;;
51618;SDS011;38518;53.164;5.430;2023-11-21T05:15:20;23.00;;;11.70;;
51618;SDS011;38518;53.164;5.430;2023-11-21T05:17:46;20.98;;;11.70;;
51618;SDS011;38518;53.164;5.430;2023-11-21T05:20:15;20.25;;;11.02;;
51618;SDS011;38518;53.164;5.430;2023-11-21T05:22:48;19.52;;;10.23;;
51618;SDS011;38518;53.164;5.430;2023-11-21T05:25:14;20.05;;;10.80;;
51618;SDS011;38518;53.164;5.430;2023-11-21T05:27:43;18.27;;;7.97;;
51618;SDS011;38518;53.164;5.430;2023-11-21T05:30:09;19.17;;;11.10;;
51618;SDS011;38518;53.164;5.430;2023-11-21T05:32:37;18.52;;;10.32;;
51618;SDS011;38518;53.164;5.430;2023-11-21T05:35:03;21.98;;;11.88;;
51618;SDS011;38518;53.164;5.430;2023-11-21T05:37:34;17.85;;;10.13;;
51618;SDS011;38518;53.164;5.430;2023-11-21T05:40:01;17.58;;;10.57;;
51618;SDS011;38518;53.164;5.430;2023-11-21T05:42:31;18.58;;;11.52;;
51618;SDS011;38518;53.164;5.430;2023-11-21T05:44:57;17.88;;;10.60;;
51618;SDS011;38518;53.164;5.430;2023-11-21T05:47:38;20.58;;;8.73;;
51618;SDS011;38518;53.164;5.430;2023-11-21T05:50:06;18.42;;;8.55;;
51618;SDS011;38518;53.164;5.430;2023-11-21T05:52:36;19.05;;;8.88;;
51618;SDS011;38518;53.164;5.430;2023-11-21T05:55:02;23.55;;;9.63;;
51618;SDS011;38518;53.164;5.430;2023-11-21T05:57:32;22.48;;;13.32;;
51618;SDS011;38518;53.164;5.430;2023-11-21T06:00:09;20.15;;;13.77;;
51618;SDS011;38518;53.164;5.430;2023-11-21T06:02:37;25.23;;;14.48;;
51618;SDS011;38518;53.164;5.430;2023-11-21T06:05:04;22.25;;;14.43;;
51618;SDS011;38518;53.164;5.430;2023-11-21T06:07:31;20.00;;;13.88;;
51618;SDS011;38518;53.164;5.430;2023-11-21T06:09:57;24.63;;;14.40;;
51618;SDS011;38518;53.164;5.430;2023-11-21T06:12:22;24.25;;;15.48;;
51618;SDS011;38518;53.164;5.430;2023-11-21T06:14:48;23.80;;;14.90;;
51618;SDS011;38518;53.164;5.430;2023-11-21T06:17:14;23.65;;;14.30;;
51618;SDS011;38518;53.164;5.430;2023-11-21T06:19:39;18.35;;;12.65;;
51618;SDS011;38518;53.164;5.430;2023-11-21T06:22:05;19.08;;;13.25;;
51618;SDS011;38518;53.164;5.430;2023-11-21T06:24:31;20.45;;;13.25;;
51618;SDS011;38518;53.164;5.430;2023-11-21T06:26:57;17.65;;;11.68;;
51618;SDS011;38518;53.164;5.430;2023-11-21T06:29:22;18.30;;;11.55;;
51618;SDS011;38518;53.164;5.430;2023-11-21T06:31:48;21.45;;;13.10;;
51618;SDS011;38518;53.164;5.430;2023-11-21T06:34:14;19.33;;;12.65;;
51618;SDS011;38518;53.164;5.430;2023-11-21T06:36:40;18.17;;;12.32;;
51618;SDS011;38518;53.164;5.430;2023-11-21T06:39:06;17.30;;;11.40;;
51618;SDS011;38518;53.164;5.430;2023-11-21T06:41:33;17.02;;;11.52;;
51618;SDS011;38518;53.164;5.430;2023-11-21T06:43:59;17.40;;;11.07;;
51618;SDS011;38518;53.164;5.430;2023-11-21T06:46:25;17.13;;;11.05;;
51618;SDS011;38518;53.164;5.430;2023-11-21T06:48:50;15.75;;;8.30;;
51618;SDS011;38518;53.164;5.430;2023-11-21T06:51:16;18.38;;;11.75;;
51618;SDS011;38518;53.164;5.430;2023-11-21T06:53:42;17.55;;;8.70;;
51618;SDS011;38518;53.164;5.430;2023-11-21T06:56:17;16.40;;;11.07;;
51618;SDS011;38518;53.164;5.430;2023-11-21T07:01:11;18.13;;;13.00;;
51618;SDS011;38518;53.164;5.430;2023-11-21T07:03:40;19.90;;;12.52;;
51618;SDS011;38518;53.164;5.430;2023-11-21T07:06:06;20.70;;;13.38;;
51618;SDS011;38518;53.164;5.430;2023-11-21T07:08:33;23.45;;;14.60;;
51618;SDS011;38518;53.164;5.430;2023-11-21T07:10:58;21.65;;;14.35;;
51618;SDS011;38518;53.164;5.430;2023-11-21T07:13:24;23.88;;;15.57;;
51618;SDS011;38518;53.164;5.430;2023-11-21T07:15:51;22.67;;;15.05;;
51618;SDS011;38518;53.164;5.430;2023-11-21T07:18:17;25.42;;;15.50;;
51618;SDS011;38518;53.164;5.430;2023-11-21T07:20:43;23.77;;;15.93;;
51618;SDS011;38518;53.164;5.430;2023-11-21T07:23:09;22.23;;;14.90;;
51618;SDS011;38518;53.164;5.430;2023-11-21T07:25:35;23.88;;;15.52;;
51618;SDS011;38518;53.164;5.430;2023-11-21T07:28:01;24.15;;;15.77;;
51618;SDS011;38518;53.164;5.430;2023-11-21T07:30:27;23.60;;;16.42;;
51618;SDS011;38518;53.164;5.430;2023-11-21T07:32:52;18.65;;;13.98;;
51618;SDS011;38518;53.164;5.430;2023-11-21T07:35:18;18.80;;;10.70;;
51618;SDS011;38518;53.164;5.430;2023-11-21T07:37:44;20.20;;;13.65;;
51618;SDS011;38518;53.164;5.430;2023-11-21T07:40:10;20.02;;;13.65;;
51618;SDS011;38518;53.164;5.430;2023-11-21T07:42:36;19.25;;;13.27;;
51618;SDS011;38518;53.164;5.430;2023-11-21T07:45:03;20.83;;;13.82;;
51618;SDS011;38518;53.164;5.430;2023-11-21T07:47:30;22.10;;;14.25;;
51618;SDS011;38518;53.164;5.430;2023-11-21T07:49:59;20.77;;;14.50;;
51618;SDS011;38518;53.164;5.430;2023-11-21T07:52:27;22.27;;;11.85;;
51618;SDS011;38518;53.164;5.430;2023-11-21T07:54:53;20.95;;;15.63;;
51618;SDS011;38518;53.164;5.430;2023-11-21T07:57:19;23.48;;;16.35;;
51618;SDS011;38518;53.164;5.430;2023-11-21T07:59:45;21.48;;;15.18;;
51618;SDS011;38518;53.164;5.430;2023-11-21T08:02:10;21.92;;;16.77;;
51618;SDS011;38518;53.164;5.430;2023-11-21T08:04:36;23.05;;;17.55;;
51618;SDS011;38518;53.164;5.430;2023-11-21T08:07:02;23.88;;;17.23;;
51618;SDS011;38518;53.164;5.430;2023-11-21T08:09:29;22.65;;;16.77;;
51618;SDS011;38518;53.164;5.430;2023-11-21T08:11:55;27.02;;;17.83;;
51618;SDS011;38518;53.164;5.430;2023-11-21T08:14:21;26.85;;;18.63;;
51618;SDS011;38518;53.164;5.430;2023-11-21T08:16:50;22.75;;;14.07;;
51618;SDS011;38518;53.164;5.430;2023-11-21T08:19:17;26.65;;;13.80;;
51618;SDS011;38518;53.164;5.430;2023-11-21T08:21:43;24.20;;;18.38;;
51618;SDS011;38518;53.164;5.430;2023-11-21T08:24:10;25.10;;;18.20;;
51618;SDS011;38518;53.164;5.430;2023-11-21T08:26:36;23.60;;;17.35;;
51618;SDS011;38518;53.164;5.430;2023-11-21T08:29:03;26.75;;;18.38;;
51618;SDS011;38518;53.164;5.430;2023-11-21T08:31:28;27.77;;;17.55;;
51618;SDS011;38518;53.164;5.430;2023-11-21T08:33:54;25.20;;;16.98;;
51618;SDS011;38518;53.164;5.430;2023-11-21T08:36:21;24.60;;;16.40;;
51618;SDS011;38518;53.164;5.430;2023-11-21T08:38:49;23.77;;;12.35;;
51618;SDS011;38518;53.164;5.430;2023-11-21T08:41:17;24.85;;;15.90;;
51618;SDS011;38518;53.164;5.430;2023-11-21T08:43:47;21.90;;;15.02;;
51618;SDS011;38518;53.164;5.430;2023-11-21T08:46:13;23.73;;;15.63;;
51618;SDS011;38518;53.164;5.430;2023-11-21T08:48:40;20.10;;;15.02;;
51618;SDS011;38518;53.164;5.430;2023-11-21T08:51:06;22.55;;;14.43;;
51618;SDS011;38518;53.164;5.430;2023-11-21T08:53:32;19.45;;;13.93;;
51618;SDS011;38518;53.164;5.430;2023-11-21T08:55:58;21.52;;;14.07;;
51618;SDS011;38518;53.164;5.430;2023-11-21T08:58:23;20.08;;;13.77;;
51618;SDS011;38518;53.164;5.430;2023-11-21T09:00:49;20.33;;;12.93;;
51618;SDS011;38518;53.164;5.430;2023-11-21T09:03:15;20.80;;;10.45;;
51618;SDS011;38518;53.164;5.430;2023-11-21T09:05:40;16.85;;;12.05;;
51618;SDS011;38518;53.164;5.430;2023-11-21T09:08:06;14.80;;;11.77;;
51618;SDS011;38518;53.164;5.430;2023-11-21T09:10:33;16.20;;;12.00;;
51618;SDS011;38518;53.164;5.430;2023-11-21T09:13:01;15.63;;;12.02;;
51618;SDS011;38518;53.164;5.430;2023-11-21T09:15:27;14.98;;;11.38;;
51618;SDS011;38518;53.164;5.430;2023-11-21T09:17:53;14.80;;;8.25;;
51618;SDS011;38518;53.164;5.430;2023-11-21T09:20:18;14.73;;;8.00;;
51618;SDS011;38518;53.164;5.430;2023-11-21T09:22:48;14.00;;;10.55;;
51618;SDS011;38518;53.164;5.430;2023-11-21T09:25:14;20.95;;;10.50;;
51618;SDS011;38518;53.164;5.430;2023-11-21T09:27:40;16.20;;;11.07;;
51618;SDS011;38518;53.164;5.430;2023-11-21T09:30:06;14.35;;;9.80;;
51618;SDS011;38518;53.164;5.430;2023-11-21T09:32:37;14.00;;;9.98;;
51618;SDS011;38518;53.164;5.430;2023-11-21T09:35:06;15.20;;;10.70;;
51618;SDS011;38518;53.164;5.430;2023-11-21T09:37:34;16.15;;;10.77;;
51618;SDS011;38518;53.164;5.430;2023-11-21T09:40:03;15.70;;;10.77;;
51618;SDS011;38518;53.164;5.430;2023-11-21T09:42:32;17.70;;;11.27;;
51618;SDS011;38518;53.164;5.430;2023-11-21T09:47:50;15.82;;;8.93;;
51618;SDS011;38518;53.164;5.430;2023-11-21T09:50:20;14.82;;;11.52;;
51618;SDS011;38518;53.164;5.430;2023-11-21T09:55:49;20.80;;;13.50;;
51618;SDS011;38518;53.164;5.430;2023-11-21T09:58:17;18.63;;;13.30;;
51618;SDS011;38518;53.164;5.430;2023-11-21T10:00:45;20.80;;;13.75;;
51618;SDS011;38518;53.164;5.430;2023-11-21T10:03:12;17.58;;;13.23;;
51618;SDS011;38518;53.164;5.430;2023-11-21T10:05:39;19.98;;;12.60;;
51618;SDS011;38518;53.164;5.430;2023-11-21T10:08:07;18.80;;;12.85;;
51618;SDS011;38518;53.164;5.430;2023-11-21T10:10:37;16.05;;;13.45;;
51618;SDS011;38518;53.164;5.430;2023-11-21T10:13:08;19.48;;;13.80;;
51618;SDS011;38518;53.164;5.430;2023-11-21T10:15:37;16.88;;;13.32;;
51618;SDS011;38518;53.164;5.430;2023-11-21T10:18:03;18.17;;;10.68;;
51618;SDS011;38518;53.164;5.430;2023-11-21T10:20:34;16.48;;;13.52;;
51618;SDS011;38518;53.164;5.430;2023-11-21T10:23:00;16.00;;;12.68;;
51618;SDS011;38518;53.164;5.430;2023-11-21T10:25:29;16.05;;;12.55;;
51618;SDS011;38518;53.164;5.430;2023-11-21T10:27:59;16.00;;;11.60;;
51618;SDS011;38518;53.164;5.430;2023-11-21T10:30:34;15.15;;;12.02;;
51618;SDS011;38518;53.164;5.430;2023-11-21T10:33:03;13.80;;;11.35;;
51618;SDS011;38518;53.164;5.430;2023-11-21T10:35:43;13.13;;;11.43;;
51618;SDS011;38518;53.164;5.430;2023-11-21T10:38:17;13.18;;;11.60;;
51618;SDS011;38518;53.164;5.430;2023-11-21T10:40:43;13.98;;;11.05;;
51618;SDS011;38518;53.164;5.430;2023-11-21T10:43:11;11.27;;;10.18;;
51618;SDS011;38518;53.164;5.430;2023-11-21T10:45:38;12.55;;;11.07;;
51618;SDS011;38518;53.164;5.430;2023-11-21T10:48:07;11.35;;;9.38;;
51618;SDS011;38518;53.164;5.430;2023-11-21T10:50:40;12.60;;;8.52;;
51618;SDS011;38518;53.164;5.430;2023-11-21T10:53:06;11.20;;;8.85;;
51618;SDS011;38518;53.164;5.430;2023-11-21T10:55:33;11.55;;;9.55;;
51618;SDS011;38518;53.164;5.430;2023-11-21T10:58:00;9.93;;;8.57;;
51618;SDS011;38518;53.164;5.430;2023-11-21T11:00:29;9.73;;;8.18;;
51618;SDS011;38518;53.164;5.430;2023-11-21T11:02:56;11.30;;;8.43;;
51618;SDS011;38518;53.164;5.430;2023-11-21T11:05:24;10.30;;;8.73;;
51618;SDS011;38518;53.164;5.430;2023-11-21T11:07:52;9.65;;;8.65;;
51618;SDS011;38518;53.164;5.430;2023-11-21T11:10:29;10.90;;;9.02;;
51618;SDS011;38518;53.164;5.430;2023-11-21T11:12:55;11.23;;;9.18;;
51618;SDS011;38518;53.164;5.430;2023-11-21T11:15:25;9.45;;;8.32;;
51618;SDS011;38518;53.164;5.430;2023-11-21T11:17:52;10.00;;;8.55;;
51618;SDS011;38518;53.164;5.430;2023-11-21T11:20:43;9.95;;;8.35;;
51618;SDS011;38518;53.164;5.430;2023-11-21T11:28:12;10.50;;;9.25;;
51618;SDS011;38518;53.164;5.430;2023-11-21T11:36:26;9.70;;;8.18;;
51618;SDS011;38518;53.164;5.430;2023-11-21T11:38:59;7.35;;;6.60;;
51618;SDS011;38518;53.164;5.430;2023-11-21T11:41:27;7.20;;;6.50;;
51618;SDS011;38518;53.164;5.430;2023-11-21T11:43:57;7.50;;;6.28;;
51618;SDS011;38518;53.164;5.430;2023-11-21T11:46:39;7.45;;;6.75;;
51618;SDS011;38518;53.164;5.430;2023-11-21T11:49:24;7.05;;;6.35;;
51618;SDS011;38518;53.164;5.430;2023-11-21T11:54:56;7.43;;;6.32;;
51618;SDS011;38518;53.164;5.430;2023-11-21T11:57:25;7.57;;;6.75;;
51618;SDS011;38518;53.164;5.430;2023-11-21T12:02:47;7.38;;;6.68;;
51618;SDS011;38518;53.164;5.430;2023-11-21T12:05:15;7.60;;;6.90;;
51618;SDS011;38518;53.164;5.430;2023-11-21T12:07:52;6.90;;;6.20;;
51618;SDS011;38518;53.164;5.430;2023-11-21T12:10:19;7.88;;;6.88;;
51618;SDS011;38518;53.164;5.430;2023-11-21T12:12:48;7.10;;;6.38;;
51618;SDS011;38518;53.164;5.430;2023-11-21T12:15:15;7.65;;;6.93;;
51618;SDS011;38518;53.164;5.430;2023-11-21T12:17:42;7.68;;;6.50;;
51618;SDS011;38518;53.164;5.430;2023-11-21T12:20:09;6.68;;;6.07;;
51618;SDS011;38518;53.164;5.430;2023-11-21T12:22:45;7.57;;;6.88;;
51618;SDS011;38518;53.164;5.430;2023-11-21T12:25:13;7.78;;;7.07;;
51618;SDS011;38518;53.164;5.430;2023-11-21T12:27:41;7.90;;;6.82;;
51618;SDS011;38518;53.164;5.430;2023-11-21T12:30:08;7.28;;;6.57;;
51618;SDS011;38518;53.164;5.430;2023-11-21T12:32:39;7.28;;;6.57;;
51618;SDS011;38518;53.164;5.430;2023-11-21T12:35:06;7.13;;;6.43;;
51618;SDS011;38518;53.164;5.430;2023-11-21T12:37:35;7.72;;;6.93;;
51618;SDS011;38518;53.164;5.430;2023-11-21T12:40:02;7.10;;;6.40;;
51618;SDS011;38518;53.164;5.430;2023-11-21T12:42:29;7.70;;;6.90;;
51618;SDS011;38518;53.164;5.430;2023-11-21T12:47:45;7.75;;;6.95;;
51618;SDS011;38518;53.164;5.430;2023-11-21T12:50:12;7.45;;;6.45;;
51618;SDS011;38518;53.164;5.430;2023-11-21T12:52:44;7.93;;;6.72;;
51618;SDS011;38518;53.164;5.430;2023-11-21T12:55:16;8.25;;;7.00;;
51618;SDS011;38518;53.164;5.430;2023-11-21T12:57:43;7.03;;;6.20;;
51618;SDS011;38518;53.164;5.430;2023-11-21T13:00:10;7.70;;;6.90;;
51618;SDS011;38518;53.164;5.430;2023-11-21T13:02:50;8.52;;;7.03;;
51618;SDS011;38518;53.164;5.430;2023-11-21T13:07:51;7.10;;;6.40;;
51618;SDS011;38518;53.164;5.430;2023-11-21T13:10:21;7.90;;;7.10;;
51618;SDS011;38518;53.164;5.430;2023-11-21T13:12:54;7.47;;;6.68;;
51618;SDS011;38518;53.164;5.430;2023-11-21T13:15:23;10.20;;;7.55;;
51618;SDS011;38518;53.164;5.430;2023-11-21T13:17:52;8.25;;;7.45;;
51618;SDS011;38518;53.164;5.430;2023-11-21T13:20:19;8.50;;;7.28;;
51618;SDS011;38518;53.164;5.430;2023-11-21T13:25:22;8.07;;;7.25;;
51618;SDS011;38518;53.164;5.430;2023-11-21T13:27:49;7.97;;;7.18;;
51618;SDS011;38518;53.164;5.430;2023-11-21T13:30:15;8.07;;;7.25;;
51618;SDS011;38518;53.164;5.430;2023-11-21T13:32:44;8.55;;;6.53;;
51618;SDS011;38518;53.164;5.430;2023-11-21T13:35:11;8.23;;;7.43;;
51618;SDS011;38518;53.164;5.430;2023-11-21T13:37:49;7.75;;;6.97;;
51618;SDS011;38518;53.164;5.430;2023-11-21T13:40:21;8.10;;;7.05;;
51618;SDS011;38518;53.164;5.430;2023-11-21T13:42:52;7.60;;;6.82;;
51618;SDS011;38518;53.164;5.430;2023-11-21T13:45:19;8.15;;;6.63;;
51618;SDS011;38518;53.164;5.430;2023-11-21T13:47:49;8.52;;;7.63;;
51618;SDS011;38518;53.164;5.430;2023-11-21T13:50:17;8.82;;;6.10;;
51618;SDS011;38518;53.164;5.430;2023-11-21T13:52:48;8.05;;;6.35;;
51618;SDS011;38518;53.164;5.430;2023-11-21T13:55:16;8.45;;;7.65;;
51618;SDS011;38518;53.164;5.430;2023-11-21T13:57:43;7.68;;;6.97;;
51618;SDS011;38518;53.164;5.430;2023-11-21T14:00:12;8.65;;;6.00;;
51618;SDS011;38518;53.164;5.430;2023-11-21T14:02:58;8.75;;;7.85;;
51618;SDS011;38518;53.164;5.430;2023-11-21T14:05:31;10.30;;;8.88;;
51618;SDS011;38518;53.164;5.430;2023-11-21T14:07:59;9.85;;;8.13;;
51618;SDS011;38518;53.164;5.430;2023-11-21T14:10:28;8.60;;;7.55;;
51618;SDS011;38518;53.164;5.430;2023-11-21T14:13:05;11.45;;;9.98;;
51618;SDS011;38518;53.164;5.430;2023-11-21T14:15:31;8.07;;;7.28;;
51618;SDS011;38518;53.164;5.430;2023-11-21T14:17:58;6.75;;;5.82;;
51618;SDS011;38518;53.164;5.430;2023-11-21T14:20:27;6.28;;;4.88;;
51618;SDS011;38518;53.164;5.430;2023-11-21T14:22:54;8.50;;;6.25;;
51618;SDS011;38518;53.164;5.430;2023-11-21T14:25:19;6.00;;;5.07;;
51618;SDS011;38518;53.164;5.430;2023-11-21T14:27:47;6.90;;;5.57;;
51618;SDS011;38518;53.164;5.430;2023-11-21T14:30:13;7.07;;;5.32;;
51618;SDS011;38518;53.164;5.430;2023-11-21T14:32:42;5.97;;;4.93;;
51618;SDS011;38518;53.164;5.430;2023-11-21T14:35:08;5.53;;;4.97;;
51618;SDS011;38518;53.164;5.430;2023-11-21T14:37:34;5.40;;;4.55;;
51618;SDS011;38518;53.164;5.430;2023-11-21T14:40:00;7.72;;;5.30;;
51618;SDS011;38518;53.164;5.430;2023-11-21T14:42:26;5.20;;;4.50;;
51618;SDS011;38518;53.164;5.430;2023-11-21T14:44:54;6.63;;;5.50;;
51618;SDS011;38518;53.164;5.430;2023-11-21T14:47:25;6.20;;;4.57;;
51618;SDS011;38518;53.164;5.430;2023-11-21T14:49:52;8.32;;;6.40;;
51618;SDS011;38518;53.164;5.430;2023-11-21T14:52:21;8.75;;;7.18;;
51618;SDS011;38518;53.164;5.430;2023-11-21T14:55:03;9.07;;;6.85;;
51618;SDS011;38518;53.164;5.430;2023-11-21T14:57:47;10.23;;;6.72;;
51618;SDS011;38518;53.164;5.430;2023-11-21T15:00:16;8.48;;;6.05;;
51618;SDS011;38518;53.164;5.430;2023-11-21T15:02:58;10.77;;;8.88;;
51618;SDS011;38518;53.164;5.430;2023-11-21T15:05:24;9.55;;;8.38;;
51618;SDS011;38518;53.164;5.430;2023-11-21T15:07:52;9.30;;;8.30;;
51618;SDS011;38518;53.164;5.430;2023-11-21T15:10:24;11.43;;;10.23;;